Time;durP1;ratioP1;P1;durP2;ratioP2;P2;SDS_P1;SDS_P2;PMS_P1;PMS_P2;Temp;Humidity;BMP_temperature;BMP_pressure;BME280_temperature;BME280_humidity;BME280_pressure;Samples;Min_cycle;Max_cycle;Signal;HPM_P1;HPM_P2
2022/07/07 00:00:04;;;;;;;3.60;3.10;;;;;;;17.17;85.11;99328.45;109132;1277;139636;-58
2022/07/07 00:02:31;;;;;;;3.30;2.80;;;;;;;17.13;85.06;99325.95;109269;1276;22506;-59
2022/07/07 00:04:58;;;;;;;4.70;2.50;;;;;;;17.14;85.04;99330.73;108996;1277;139322;-59
2022/07/07 00:07:25;;;;;;;4.80;2.60;;;;;;;17.13;84.71;99331.36;109281;1276;22222;-58
2022/07/07 00:09:52;;;;;;;4.90;2.50;;;;;;;17.08;84.24;99332.01;109222;1276;22635;-58
2022/07/07 00:12:18;;;;;;;3.80;2.20;;;;;;;17.01;84.11;99328.13;109143;1276;139663;-59
2022/07/07 00:14:46;;;;;;;2.30;2.10;;;;;;;16.96;84.06;99322.61;109268;1277;22437;-58
2022/07/07 00:17:12;;;;;;;2.30;2.00;;;;;;;16.92;84.13;99321.17;109146;1277;138831;-59
2022/07/07 00:19:39;;;;;;;5.10;1.70;;;;;;;16.91;83.91;99323.30;109284;1276;22561;-59
2022/07/07 00:22:06;;;;;;;2.50;1.90;;;;;;;16.87;83.42;99322.71;109260;1277;22475;-58
2022/07/07 00:24:33;;;;;;;1.90;1.60;;;;;;;16.79;82.77;99324.41;109172;1276;139115;-59
2022/07/07 00:27:00;;;;;;;2.90;1.50;;;;;;;16.71;82.77;99324.95;109213;1277;23497;-59
2022/07/07 00:29:27;;;;;;;4.00;1.40;;;;;;;16.66;82.90;99331.59;109175;1277;138996;-59
2022/07/07 00:31:54;;;;;;;1.70;1.40;;;;;;;16.64;82.72;99340.48;109077;1277;23378;-59
2022/07/07 00:34:21;;;;;;;2.80;1.30;;;;;;;16.61;82.42;99336.14;109294;1276;22482;-59
2022/07/07 00:36:47;;;;;;;1.40;1.30;;;;;;;16.58;82.20;99335.90;109189;1276;138495;-59
2022/07/07 00:39:14;;;;;;;2.10;1.30;;;;;;;16.51;81.94;99328.02;109338;1277;22275;-59
2022/07/07 00:41:41;;;;;;;2.90;1.30;;;;;;;16.42;81.98;99329.61;109328;1274;138238;-59
2022/07/07 00:44:12;;;;;;;4.60;1.20;;;;;;;16.36;82.13;99332.08;109294;1276;22495;-59
2022/07/07 00:46:43;;;;;;;1.60;1.30;;;;;;;16.31;82.22;99324.91;109183;1276;140498;-59
2022/07/07 00:49:11;;;;;;;2.00;1.20;;;;;;;16.24;82.15;99325.06;109236;1276;22425;-59
2022/07/07 00:51:39;;;;;;;1.80;1.40;;;;;;;16.17;82.23;99318.31;109345;1275;23476;-59
2022/07/07 00:54:07;;;;;;;10.50;1.50;;;;;;;16.11;82.25;99318.80;109152;1277;139175;-59
2022/07/07 00:56:34;;;;;;;3.60;1.50;;;;;;;16.09;82.45;99309.98;109249;1276;22452;-59
2022/07/07 00:59:06;;;;;;;1.70;1.60;;;;;;;16.08;82.36;99301.64;109011;1277;139544;-59
2022/07/07 01:01:42;;;;;;;1.80;1.50;;;;;;;16.06;82.33;99306.17;109233;1276;23398;-59
2022/07/07 01:04:11;;;;;;;2.80;1.70;;;;;;;16.03;82.28;99304.73;109282;1277;22482;-59
2022/07/07 01:06:39;;;;;;;1.30;1.20;;;;;;;16.00;82.18;99304.48;109110;1277;138292;-60
2022/07/07 01:09:06;;;;;;;2.80;1.50;;;;;;;15.97;82.14;99303.84;109278;1276;22526;-59
2022/07/07 01:11:47;;;;;;;11.50;1.70;;;;;;;15.95;82.19;99308.95;109182;1276;138121;-59
2022/07/07 01:14:13;;;;;;;2.50;1.40;;;;;;;15.91;82.09;99313.98;109260;1277;22579;-58
2022/07/07 01:16:40;;;;;;;5.30;1.40;;;;;;;15.89;82.03;99317.59;109089;1277;139323;-59
2022/07/07 01:19:07;;;;;;;2.30;1.50;;;;;;;15.85;82.14;99319.69;109172;1276;22447;-59
2022/07/07 01:22:00;;;;;;;3.50;1.70;;;;;;;15.84;82.44;99322.46;109217;1277;23437;-59
2022/07/07 01:24:27;;;;;;;2.10;1.30;;;;;;;15.86;82.12;99340.07;109085;1277;139123;-59
2022/07/07 01:27:14;;;;;;;1.50;1.40;;;;;;;15.85;81.88;99345.48;109357;1276;22512;-58
2022/07/07 01:29:42;;;;;;;1.90;1.10;;;;;;;15.83;81.82;99350.77;109149;1277;140847;-59
2022/07/07 01:32:09;;;;;;;1.20;1.10;;;;;;;15.84;81.86;99354.48;109274;1276;22451;-59
2022/07/07 01:34:37;;;;;;;4.90;1.30;;;;;;;15.86;81.79;99354.90;109108;1277;139187;-59
2022/07/07 01:37:04;;;;;;;2.20;1.20;;;;;;;15.87;81.53;99352.95;109300;1276;22438;-59
2022/07/07 01:39:31;;;;;;;6.20;1.30;;;;;;;15.87;81.45;99352.41;109157;1277;23644;-59
2022/07/07 01:41:58;;;;;;;3.80;1.30;;;;;;;15.85;81.15;99359.16;109199;1274;139127;-59
2022/07/07 01:44:25;;;;;;;2.80;1.20;;;;;;;15.78;80.84;99355.39;109238;1277;23173;-58
2022/07/07 01:46:52;;;;;;;1.70;1.20;;;;;;;15.69;80.90;99361.17;109112;1277;138791;-59
2022/07/07 01:49:18;;;;;;;2.00;1.00;;;;;;;15.65;81.13;99357.77;109241;1276;23148;-59
2022/07/07 01:51:45;;;;;;;8.30;1.40;;;;;;;15.60;80.94;99357.67;109263;1277;22450;-59
2022/07/07 01:54:12;;;;;;;2.10;1.20;;;;;;;15.51;81.03;99366.05;109047;1276;139057;-59
2022/07/07 01:56:39;;;;;;;1.20;1.00;;;;;;;15.45;81.28;99373.80;109224;1277;22555;-59
2022/07/07 01:59:05;;;;;;;2.90;1.10;;;;;;;15.41;81.50;99373.82;109125;1276;139349;-59
2022/07/07 02:01:32;;;;;;;3.40;1.30;;;;;;;15.41;81.80;99368.94;109278;1277;22906;-59
2022/07/07 02:03:59;;;;;;;5.70;1.10;;;;;;;15.40;81.79;99372.08;109239;1277;23451;-59
2022/07/07 02:06:26;;;;;;;1.80;1.10;;;;;;;15.38;81.85;99377.75;109097;1276;138214;-59
2022/07/07 02:08:53;;;;;;;4.20;1.30;;;;;;;15.36;81.87;99374.48;109252;1277;22634;-59
2022/07/07 02:11:19;;;;;;;1.40;1.00;;;;;;;15.35;81.98;99375.63;109103;1276;139285;-59
2022/07/07 02:13:50;;;;;;;2.80;1.20;;;;;;;15.33;82.20;99379.61;109227;1277;22480;-59
2022/07/07 02:16:22;;;;;;;3.80;1.30;;;;;;;15.31;82.09;99372.39;109330;1276;23272;-59
2022/07/07 02:18:51;;;;;;;1.10;1.00;;;;;;;15.26;82.13;99371.48;108918;1276;348388;-59
2022/07/07 02:22:03;;;;;;;1.20;0.90;;;;;;;15.24;82.33;99370.06;101916;1310;546499;-60
2022/07/07 02:24:30;;;;;;;2.90;1.50;;;;;;;15.18;82.32;99367.09;103736;1287;138843;-59
2022/07/07 02:26:57;;;;;;;3.70;1.30;;;;;;;15.17;82.46;99373.59;103917;1289;22791;-59
2022/07/07 02:29:24;;;;;;;1.70;1.30;;;;;;;15.14;82.69;99380.72;103726;1289;137670;-59
2022/07/07 02:31:51;;;;;;;2.50;1.10;;;;;;;15.10;82.82;99381.20;103822;1289;22603;-59
2022/07/07 02:34:18;;;;;;;4.00;1.50;;;;;;;15.08;83.14;99384.63;103814;1289;24261;-59
2022/07/07 02:36:44;;;;;;;3.30;1.40;;;;;;;15.07;83.16;99386.27;103754;1286;248266;-59
2022/07/07 02:39:11;;;;;;;2.30;1.10;;;;;;;15.07;83.25;99393.24;103932;1286;25334;-59
2022/07/07 02:41:38;;;;;;;2.50;1.20;;;;;;;15.06;83.27;99394.68;103845;1286;137816;-59
2022/07/07 02:44:05;;;;;;;5.30;1.20;;;;;;;15.04;83.36;99400.24;103996;1286;25112;-58
2022/07/07 02:46:31;;;;;;;1.60;1.20;;;;;;;15.01;83.54;99402.73;103952;1286;138036;-59
2022/07/07 02:48:58;;;;;;;1.90;1.30;;;;;;;14.98;83.54;99401.14;108188;1286;22456;-59
2022/07/07 02:51:25;;;;;;;1.90;1.20;;;;;;;14.96;83.71;99405.00;108067;1286;22484;-59
2022/07/07 02:53:52;;;;;;;1.80;1.30;;;;;;;14.96;83.80;99403.35;108175;1286;138709;-59
2022/07/07 02:56:19;;;;;;;2.60;1.00;;;;;;;14.95;83.85;99407.48;108297;1286;22470;-59
2022/07/07 02:58:46;;;;;;;2.00;1.30;;;;;;;14.95;84.06;99407.32;108166;1286;140036;-59
2022/07/07 03:01:13;;;;;;;1.90;1.20;;;;;;;14.95;84.02;99408.91;108265;1286;22450;-58
2022/07/07 03:03:40;;;;;;;1.10;0.90;;;;;;;14.96;84.23;99412.08;108233;1286;22575;-59
2022/07/07 03:06:06;;;;;;;3.40;1.30;;;;;;;15.00;84.28;99412.53;107903;1287;139972;-60
2022/07/07 03:08:33;;;;;;;4.30;1.20;;;;;;;15.04;84.22;99405.02;108271;1286;22479;-60
2022/07/07 03:11:00;;;;;;;4.80;1.50;;;;;;;15.05;83.96;99404.08;108118;1286;137797;-60
2022/07/07 03:13:27;;;;;;;1.70;1.30;;;;;;;15.05;83.86;99403.90;108192;1286;22462;-60
2022/07/07 03:15:54;;;;;;;1.90;1.10;;;;;;;15.03;83.90;99408.59;108450;1284;22526;-60
2022/07/07 03:18:22;;;;;;;2.40;1.10;;;;;;;15.03;83.92;99407.71;108370;1283;138636;-60
2022/07/07 03:20:49;;;;;;;1.60;1.20;;;;;;;15.05;83.87;99408.84;108553;1282;22427;-60
2022/07/07 03:23:15;;;;;;;1.70;1.30;;;;;;;15.04;83.78;99409.85;108395;1283;137773;-60
2022/07/07 03:25:42;;;;;;;2.30;1.10;;;;;;;15.04;83.82;99409.08;108608;1282;22572;-60
2022/07/07 03:28:09;;;;;;;6.40;1.40;;;;;;;15.07;83.80;99411.90;108563;1283;22656;-59
2022/07/07 03:30:36;;;;;;;1.40;1.20;;;;;;;15.09;83.80;99416.05;108454;1283;138930;-59
2022/07/07 03:33:03;;;;;;;2.30;1.40;;;;;;;15.12;83.67;99413.63;108535;1283;22499;-59
2022/07/07 03:35:29;;;;;;;1.60;1.20;;;;;;;15.15;83.71;99410.55;108402;1283;139697;-60
2022/07/07 03:37:56;;;;;;;2.40;1.20;;;;;;;15.19;83.52;99410.95;108555;1283;22455;-60
2022/07/07 03:40:23;;;;;;;5.30;1.80;;;;;;;15.22;83.41;99417.14;108365;1284;22671;-60
2022/07/07 03:42:50;;;;;;;5.30;1.70;;;;;;;15.24;83.22;99423.98;108455;1281;138542;-60
2022/07/07 03:45:17;;;;;;;4.00;1.90;;;;;;;15.25;83.14;99426.77;108532;1283;22992;-59
2022/07/07 03:47:44;;;;;;;2.70;1.50;;;;;;;15.24;83.19;99430.28;108442;1283;138385;-60
2022/07/07 03:50:11;;;;;;;3.10;1.40;;;;;;;15.24;83.16;99429.45;108546;1283;22562;-59
2022/07/07 03:52:38;;;;;;;1.10;1.00;;;;;;;15.23;82.83;99430.46;108441;1282;140062;-60
2022/07/07 03:55:05;;;;;;;1.10;1.10;;;;;;;15.20;82.86;99435.48;108524;1283;23274;-60
2022/07/07 03:57:32;;;;;;;2.10;1.20;;;;;;;15.19;83.01;99432.35;108549;1283;23308;-60
2022/07/07 03:59:59;;;;;;;1.20;1.10;;;;;;;15.22;83.16;99431.95;108401;1283;139387;-60
2022/07/07 04:02:26;;;;;;;1.30;1.00;;;;;;;15.25;83.07;99434.89;108516;1283;22558;-60
2022/07/07 04:04:52;;;;;;;2.50;1.20;;;;;;;15.28;82.98;99433.61;108382;1283;137951;-60
2022/07/07 04:07:20;;;;;;;1.30;1.20;;;;;;;15.29;82.67;99438.56;108558;1283;22461;-60
2022/07/07 04:09:47;;;;;;;1.40;0.90;;;;;;;15.29;82.81;99443.86;108555;1282;22598;-60
2022/07/07 04:12:14;;;;;;;3.80;1.00;;;;;;;15.31;83.00;99450.30;108445;1283;138848;-59
2022/07/07 04:14:41;;;;;;;3.30;1.00;;;;;;;15.33;82.94;99446.59;108508;1282;23784;-60
2022/07/07 04:17:08;;;;;;;2.10;1.20;;;;;;;15.38;82.88;99449.80;108469;1283;138023;-60
2022/07/07 04:19:35;;;;;;;1.70;1.10;;;;;;;15.40;82.82;99448.67;108570;1281;22476;-59
2022/07/07 04:22:02;;;;;;;3.00;1.30;;;;;;;15.38;82.70;99446.60;108559;1283;22478;-59
2022/07/07 04:24:29;;;;;;;1.20;1.00;;;;;;;15.36;82.64;99450.41;108304;1284;137649;-59
2022/07/07 04:26:56;;;;;;;1.70;1.40;;;;;;;15.36;82.74;99454.14;108565;1282;22470;-59
2022/07/07 04:29:23;;;;;;;1.50;1.20;;;;;;;15.35;82.63;99456.19;108446;1282;138820;-59
2022/07/07 04:31:53;;;;;;;2.10;1.10;;;;;;;15.34;82.52;99453.08;108534;1282;22478;-60
2022/07/07 04:34:22;;;;;;;3.20;1.20;;;;;;;15.35;82.59;99448.00;108544;1282;22550;-60
2022/07/07 04:36:49;;;;;;;1.60;1.00;;;;;;;15.35;82.46;99451.19;105480;1284;137900;-59
2022/07/07 04:39:16;;;;;;;2.10;1.00;;;;;;;15.33;82.12;99454.77;104209;1283;24309;-59
2022/07/07 04:41:42;;;;;;;3.30;1.00;;;;;;;15.29;82.07;99455.22;104130;1283;139520;-59
2022/07/07 04:44:09;;;;;;;3.50;1.00;;;;;;;15.24;81.95;99463.55;104220;1283;24849;-59
2022/07/07 04:46:36;;;;;;;0.90;0.80;;;;;;;15.21;81.88;99462.42;104128;1283;137836;-59
2022/07/07 04:49:03;;;;;;;3.30;1.10;;;;;;;15.18;81.91;99459.81;104680;1280;25349;-59
2022/07/07 04:51:30;;;;;;;1.60;1.20;;;;;;;15.18;82.10;99458.60;104698;1280;22575;-59
2022/07/07 04:53:57;;;;;;;3.40;1.00;;;;;;;15.19;82.22;99454.64;104510;1278;138213;-59
2022/07/07 04:56:23;;;;;;;3.00;1.60;;;;;;;15.21;82.39;99461.33;104635;1280;22589;-60
2022/07/07 04:58:50;;;;;;;2.30;1.20;;;;;;;15.24;82.38;99465.64;104509;1280;138778;-59
2022/07/07 05:01:17;;;;;;;1.30;1.10;;;;;;;15.25;82.48;99467.66;104616;1278;22765;-59
2022/07/07 05:03:44;;;;;;;2.60;1.00;;;;;;;15.27;82.51;99473.35;104690;1278;24389;-59
2022/07/07 05:06:11;;;;;;;1.40;1.00;;;;;;;15.30;82.48;99480.83;104745;1278;138772;-59
2022/07/07 05:08:38;;;;;;;2.10;1.10;;;;;;;15.32;82.24;99486.62;104895;1278;24377;-58
2022/07/07 05:11:05;;;;;;;2.10;1.20;;;;;;;15.33;82.04;99486.45;104837;1278;137948;-59
2022/07/07 05:13:32;;;;;;;2.40;1.30;;;;;;;15.35;82.03;99480.67;104733;1278;24367;-59
2022/07/07 05:15:59;;;;;;;2.30;1.90;;;;;;;15.35;81.70;99480.07;104590;1280;25726;-59
2022/07/07 05:18:25;;;;;;;6.00;1.90;;;;;;;15.36;81.53;99480.55;104517;1278;139529;-59
2022/07/07 05:20:52;;;;;;;3.40;1.90;;;;;;;15.36;81.48;99482.37;104653;1278;22579;-59
2022/07/07 05:23:19;;;;;;;3.10;2.70;;;;;;;15.37;81.60;99481.98;104447;1278;138683;-59
2022/07/07 05:25:46;;;;;;;4.80;2.70;;;;;;;15.38;81.32;99487.02;104685;1280;24022;-59
2022/07/07 05:28:13;;;;;;;4.10;3.30;;;;;;;15.39;80.93;99487.84;104655;1278;24266;-59
2022/07/07 05:30:39;;;;;;;5.00;2.60;;;;;;;15.39;81.16;99490.52;104557;1280;139803;-59
2022/07/07 05:33:07;;;;;;;4.20;2.50;;;;;;;15.42;81.19;99487.19;104552;1280;22639;-58
2022/07/07 05:35:35;;;;;;;5.90;2.50;;;;;;;15.45;81.38;99482.15;108194;1279;138361;-59
2022/07/07 05:38:02;;;;;;;3.50;2.50;;;;;;;15.51;81.27;99485.61;104700;1277;22651;-59
2022/07/07 05:40:30;;;;;;;3.80;2.70;;;;;;;15.54;80.93;99485.33;104783;1280;22573;-59
2022/07/07 05:42:56;;;;;;;5.40;2.60;;;;;;;15.56;80.74;99484.79;104725;1277;24218;-59
2022/07/07 05:45:23;;;;;;;4.70;2.60;;;;;;;15.57;80.74;99482.13;104744;1278;25987;-60
2022/07/07 05:47:50;;;;;;;4.00;3.00;;;;;;;15.58;80.57;99481.45;104710;1280;139023;-60
2022/07/07 05:50:17;;;;;;;4.30;2.50;;;;;;;15.60;80.62;99487.23;104701;1280;22724;-60
2022/07/07 05:52:44;;;;;;;2.50;2.30;;;;;;;15.62;80.57;99486.84;104372;1280;138328;-60
2022/07/07 05:55:11;;;;;;;3.80;2.50;;;;;;;15.64;80.73;99490.33;104668;1278;22864;-60
2022/07/07 05:57:38;;;;;;;4.40;2.60;;;;;;;15.67;80.87;99492.45;104698;1278;25523;-60
2022/07/07 06:00:05;;;;;;;4.40;2.70;;;;;;;15.68;80.60;99493.48;104623;1278;138424;-59
2022/07/07 06:02:37;;;;;;;4.00;2.30;;;;;;;15.70;80.13;99489.45;109051;1278;22484;-60
2022/07/07 06:05:05;;;;;;;3.40;2.30;;;;;;;15.75;80.15;99489.64;108925;1278;139100;-60
2022/07/07 06:07:40;;;;;;;3.50;2.10;;;;;;;15.80;80.20;99496.47;109053;1278;22486;-59
2022/07/07 06:10:07;;;;;;;3.40;2.20;;;;;;;15.84;80.23;99502.96;109347;1274;22469;-59
2022/07/07 06:12:34;;;;;;;2.50;2.00;;;;;;;15.90;80.07;99511.39;109253;1274;137950;-59
2022/07/07 06:19:39;;;;;;;3.30;1.70;;;;;;;16.00;79.19;99514.90;109355;1274;23187;-59
2022/07/07 06:22:06;;;;;;;1.90;1.50;;;;;;;16.06;79.07;99519.77;109385;1275;22454;-60
2022/07/07 06:24:32;;;;;;;1.40;1.30;;;;;;;16.11;78.74;99521.42;109223;1276;138865;-59
2022/07/07 06:26:59;;;;;;;3.20;1.80;;;;;;;16.15;78.44;99524.00;109457;1274;22431;-60
2022/07/07 06:29:26;;;;;;;2.00;1.40;;;;;;;16.18;78.07;99520.39;109270;1274;138065;-60
2022/07/07 06:31:53;;;;;;;2.60;1.90;;;;;;;16.21;78.25;99527.11;109407;1275;23294;-59
2022/07/07 06:34:20;;;;;;;5.40;2.10;;;;;;;16.25;77.98;99526.13;109384;1276;22560;-59
2022/07/07 06:36:46;;;;;;;3.00;1.90;;;;;;;16.28;78.02;99526.88;108872;1276;139594;-59
2022/07/07 06:39:13;;;;;;;3.30;1.60;;;;;;;16.34;78.13;99530.80;109143;1276;22428;-58
2022/07/07 06:41:40;;;;;;;2.00;1.70;;;;;;;16.39;77.78;99535.52;108885;1278;140281;-59
2022/07/07 06:44:07;;;;;;;3.60;1.70;;;;;;;16.46;77.78;99534.98;109178;1276;22489;-59
2022/07/07 06:46:34;;;;;;;1.50;1.40;;;;;;;16.54;77.60;99534.21;109211;1276;22507;-59
2022/07/07 06:49:01;;;;;;;5.00;1.70;;;;;;;16.57;77.29;99537.30;109137;1276;139554;-59
2022/07/07 06:51:28;;;;;;;3.00;1.40;;;;;;;16.60;77.17;99539.05;109215;1276;22524;-58
2022/07/07 06:53:54;;;;;;;1.90;1.70;;;;;;;16.64;77.23;99533.52;109139;1274;140148;-61
2022/07/07 06:56:21;;;;;;;3.70;1.70;;;;;;;16.71;77.19;99527.50;109253;1277;22688;-60
2022/07/07 06:58:48;;;;;;;3.40;1.60;;;;;;;16.78;77.01;99531.05;109133;1276;23254;-60
2022/07/07 07:01:15;;;;;;;3.30;1.60;;;;;;;16.84;76.69;99526.02;107289;1277;140788;-60
2022/07/07 07:03:42;;;;;;;7.00;1.70;;;;;;;16.91;76.41;99521.66;107060;1276;22387;-61
2022/07/07 07:06:09;;;;;;;1.90;1.50;;;;;;;16.98;76.27;99522.30;106818;1276;140321;-60
2022/07/07 07:08:36;;;;;;;3.30;1.30;;;;;;;17.07;75.98;99523.33;106983;1277;22471;-59
2022/07/07 07:11:03;;;;;;;3.60;1.80;;;;;;;17.13;75.58;99524.02;107094;1276;22406;-59
2022/07/07 07:13:30;;;;;;;3.00;1.70;;;;;;;17.19;75.41;99525.10;106823;1277;140135;-59
2022/07/07 07:15:57;;;;;;;3.40;1.70;;;;;;;17.26;75.26;99524.67;106921;1277;22698;-60
2022/07/07 07:18:24;;;;;;;2.70;2.10;;;;;;;17.32;75.07;99519.42;106904;1277;139391;-59
2022/07/07 07:20:51;;;;;;;4.50;2.30;;;;;;;17.40;74.94;99522.00;107044;1276;24302;-59
2022/07/07 07:23:18;;;;;;;2.20;1.60;;;;;;;17.48;74.67;99526.64;106981;1277;22458;-60
2022/07/07 07:25:45;;;;;;;4.60;2.10;;;;;;;17.54;74.18;99527.02;106887;1276;138393;-60
2022/07/07 07:28:12;;;;;;;2.20;2.00;;;;;;;17.57;73.88;99524.17;106749;1280;22410;-59
2022/07/07 07:30:39;;;;;;;2.50;1.50;;;;;;;17.61;73.56;99530.73;106971;1277;139521;-59
2022/07/07 07:33:06;;;;;;;9.70;1.80;;;;;;;17.64;73.11;99532.27;107085;1275;22463;-59
2022/07/07 07:35:32;;;;;;;2.90;1.60;;;;;;;17.63;72.78;99532.21;106942;1274;139104;-60
2022/07/07 07:37:59;;;;;;;1.70;1.40;;;;;;;17.64;72.75;99534.08;107039;1276;22408;-59
2022/07/07 07:40:26;;;;;;;1.60;1.40;;;;;;;17.63;72.73;99531.80;107005;1279;22594;-60
2022/07/07 07:42:53;;;;;;;4.70;1.60;;;;;;;17.64;72.74;99526.30;106847;1277;139594;-60
2022/07/07 07:45:21;;;;;;;2.60;1.70;;;;;;;17.68;72.84;99525.81;106978;1279;24019;-60
2022/07/07 07:47:48;;;;;;;6.80;1.60;;;;;;;17.75;73.13;99521.81;106953;1277;139114;-60
2022/07/07 07:50:16;;;;;;;2.10;1.50;;;;;;;17.87;72.96;99525.05;107089;1277;22446;-59
2022/07/07 07:52:43;;;;;;;6.50;1.20;;;;;;;18.02;72.44;99531.31;107083;1277;22366;-60
2022/07/07 07:55:11;;;;;;;3.30;1.20;;;;;;;18.11;71.94;99522.25;106974;1277;139625;-60
2022/07/07 07:57:38;;;;;;;2.10;1.50;;;;;;;18.23;71.53;99525.91;107096;1276;22434;-58
2022/07/07 08:00:06;;;;;;;1.30;1.20;;;;;;;18.29;71.07;99530.14;106955;1277;140161;-59
2022/07/07 08:02:38;;;;;;;2.60;1.90;;;;;;;18.33;70.93;99529.00;107030;1277;23681;-62
2022/07/07 08:05:05;;;;;;;1.20;1.20;;;;;;;18.40;70.55;99535.59;107115;1276;23093;-59
2022/07/07 08:07:32;;;;;;;2.40;1.90;;;;;;;18.43;70.31;99538.06;106875;1279;139644;-59
2022/07/07 08:10:00;;;;;;;1.50;1.20;;;;;;;18.45;69.83;99531.30;107006;1276;23418;-61
2022/07/07 08:12:27;;;;;;;1.30;1.20;;;;;;;18.50;69.76;99530.23;106963;1277;139978;-60
2022/07/07 08:14:54;;;;;;;4.10;1.40;;;;;;;18.56;69.51;99527.45;107144;1276;23289;-59
2022/07/07 08:17:21;;;;;;;3.80;1.50;;;;;;;18.66;69.78;99532.37;107126;1276;22431;-62
2022/07/07 08:19:48;;;;;;;4.50;1.40;;;;;;;18.77;69.65;99529.70;106856;1276;138816;-61
2022/07/07 08:22:15;;;;;;;6.10;1.40;;;;;;;18.89;69.23;99537.77;107093;1277;22568;-61
2022/07/07 08:24:42;;;;;;;1.80;1.60;;;;;;;18.96;68.58;99534.66;107015;1277;138499;-60
2022/07/07 08:27:09;;;;;;;6.50;1.80;;;;;;;18.98;68.27;99538.46;107045;1277;22923;-63
2022/07/07 08:29:38;;;;;;;4.10;1.50;;;;;;;19.00;68.62;99540.59;107045;1277;139507;-61
2022/07/07 08:32:06;;;;;;;1.60;1.20;;;;;;;19.03;68.59;99541.72;106863;1276;22482;-61
2022/07/07 08:34:34;;;;;;;3.70;1.40;;;;;;;19.03;68.43;99541.69;106814;1277;24775;-59
2022/07/07 08:37:08;;;;;;;3.20;2.00;;;;;;;19.02;68.58;99545.02;107045;1277;138217;-61
2022/07/07 08:39:35;;;;;;;14.70;10.70;;;;;;;19.02;68.41;99547.71;107044;1277;22466;-60
2022/07/07 08:42:03;;;;;;;10.80;5.30;;;;;;;19.02;68.09;99545.67;106779;1277;139098;-61
2022/07/07 08:44:29;;;;;;;2.80;2.30;;;;;;;19.06;68.17;99543.35;106889;1276;23954;-61
2022/07/07 08:46:56;;;;;;;1.40;1.30;;;;;;;19.15;67.89;99541.89;106815;1276;22410;-60
2022/07/07 08:49:23;;;;;;;1.30;1.20;;;;;;;19.24;68.02;99537.95;106627;1277;139359;-61
2022/07/07 08:51:51;;;;;;;1.80;1.60;;;;;;;19.37;67.35;99541.96;106868;1277;22495;-61
2022/07/07 08:54:18;;;;;;;3.80;1.60;;;;;;;19.48;67.08;99550.93;107004;1276;138609;-60
2022/07/07 08:56:44;;;;;;;4.20;1.60;;;;;;;19.56;66.89;99554.22;107124;1276;22416;-61
2022/07/07 08:59:13;;;;;;;5.30;1.40;;;;;;;19.59;66.56;99555.77;107140;1277;22423;-61
2022/07/07 09:01:40;;;;;;;1.60;1.50;;;;;;;19.60;66.50;99557.05;106987;1276;137520;-60
2022/07/07 09:04:07;;;;;;;2.70;1.70;;;;;;;19.59;66.64;99556.09;107247;1276;22728;-60
2022/07/07 09:06:34;;;;;;;4.70;1.70;;;;;;;19.59;66.57;99563.99;107017;1276;139442;-60
2022/07/07 09:09:03;;;;;;;10.50;8.20;;;;;;;19.58;66.34;99565.39;107265;1275;22916;-60
2022/07/07 09:11:32;;;;;;;6.10;3.70;;;;;;;19.58;66.21;99568.38;107195;1277;22489;-61
2022/07/07 09:14:13;;;;;;;3.90;3.20;;;;;;;19.55;66.16;99561.49;107154;1277;22421;-62
2022/07/07 09:16:40;;;;;;;21.20;16.00;;;;;;;19.59;66.28;99571.67;107112;1277;23335;-61
2022/07/07 09:19:33;;;;;;;9.20;7.70;;;;;;;19.63;65.87;99575.16;107031;1277;138450;-60
2022/07/07 09:22:00;;;;;;;7.40;4.10;;;;;;;19.67;66.07;99573.94;107108;1277;22429;-61
2022/07/07 09:24:27;;;;;;;3.30;1.90;;;;;;;19.73;65.87;99572.39;106819;1277;138517;-60
2022/07/07 09:26:54;;;;;;;2.10;1.80;;;;;;;19.81;65.20;99573.23;107161;1276;22386;-60
2022/07/07 09:29:22;;;;;;;5.10;4.60;;;;;;;19.86;65.73;99575.94;107106;1276;22413;-61
2022/07/07 09:31:49;;;;;;;4.70;1.70;;;;;;;19.92;65.17;99575.70;107060;1277;138192;-60
2022/07/07 09:34:16;;;;;;;1.90;1.40;;;;;;;19.99;64.87;99581.05;107120;1277;22444;-60
2022/07/07 09:39:42;;;;;;;1.40;1.30;;;;;;;20.06;63.87;99578.07;107014;1280;22451;-60
2022/07/07 09:42:30;;;;;;;1.60;1.50;;;;;;;20.10;63.82;99583.23;107048;1277;138248;-60
2022/07/07 09:45:05;;;;;;;2.90;1.40;;;;;;;20.13;64.03;99580.54;107222;1277;23290;-60
2022/07/07 09:47:34;;;;;;;1.50;1.30;;;;;;;20.18;63.69;99581.75;107145;1277;23221;-60
2022/07/07 09:50:14;;;;;;;2.10;1.20;;;;;;;20.22;63.63;99582.55;107160;1276;22573;-59
2022/07/07 09:52:45;;;;;;;3.10;1.60;;;;;;;20.27;63.19;99585.80;107214;1277;22407;-59
2022/07/07 09:55:12;;;;;;;3.30;1.30;;;;;;;20.30;63.69;99583.61;106979;1276;138524;-60
2022/07/07 09:57:40;;;;;;;2.10;1.50;;;;;;;20.34;63.67;99580.93;107257;1277;22402;-60
2022/07/07 10:00:07;;;;;;;2.50;1.30;;;;;;;20.36;63.55;99580.45;107033;1277;139989;-60
2022/07/07 10:02:37;;;;;;;4.20;1.60;;;;;;;20.37;63.70;99578.48;107170;1277;22474;-60
2022/07/07 10:05:05;;;;;;;2.70;1.40;;;;;;;20.37;63.23;99576.83;107215;1277;22551;-60
2022/07/07 10:07:32;;;;;;;1.90;1.40;;;;;;;20.38;63.82;99580.12;107059;1277;138873;-60
2022/07/07 10:10:07;;;;;;;1.70;1.40;;;;;;;20.43;63.33;99579.21;107046;1276;23878;-61
2022/07/07 10:12:38;;;;;;;6.50;1.70;;;;;;;20.49;63.43;99578.14;106963;1277;139573;-60
2022/07/07 10:15:11;;;;;;;1.40;1.30;;;;;;;20.57;62.82;99582.00;106995;1277;22452;-61
2022/07/07 10:17:41;;;;;;;2.80;1.40;;;;;;;20.64;62.04;99582.89;106947;1276;141565;-60
2022/07/07 10:20:09;;;;;;;6.70;1.30;;;;;;;20.67;61.95;99579.02;106983;1277;22512;-59
2022/07/07 10:22:36;;;;;;;6.70;2.40;;;;;;;20.69;61.40;99577.92;107104;1277;24322;-60
2022/07/07 10:25:06;;;;;;;30.60;20.10;;;;;;;20.70;61.58;99581.54;106965;1277;139755;-61
2022/07/07 10:27:36;;;;;;;9.60;6.80;;;;;;;20.73;61.11;99584.35;103870;1277;25026;-59
2022/07/07 10:30:04;;;;;;;5.10;4.60;;;;;;;20.74;60.95;99583.41;103573;1277;139251;-60
2022/07/07 10:32:39;;;;;;;7.50;3.60;;;;;;;20.77;60.98;99577.58;103748;1276;22572;-60
2022/07/07 10:35:08;;;;;;;6.70;4.30;;;;;;;20.82;61.54;99578.61;103915;1277;22609;-60
2022/07/07 10:37:51;;;;;;;6.40;3.40;;;;;;;20.90;61.39;99579.73;103781;1277;138934;-60
2022/07/07 10:40:25;;;;;;;13.20;8.10;;;;;;;20.96;60.69;99574.48;103895;1277;23941;-59
2022/07/07 10:43:31;;;;;;;5.40;1.80;;;;;;;20.97;60.74;99574.10;103686;1276;139085;-59
2022/07/07 10:45:59;;;;;;;13.00;9.80;;;;;;;20.99;60.32;99570.73;107034;1277;23257;-59
2022/07/07 10:48:45;;;;;;;4.10;2.00;;;;;;;20.98;60.10;99569.86;106924;1278;140441;-59
2022/07/07 10:51:17;;;;;;;11.50;8.70;;;;;;;20.98;60.08;99569.21;107069;1277;23514;-59
2022/07/07 10:53:57;;;;;;;6.70;3.60;;;;;;;21.00;59.96;99571.44;106969;1277;139253;-59
2022/07/07 10:56:24;;;;;;;1.90;1.60;;;;;;;21.03;60.05;99568.34;107190;1277;22458;-60
2022/07/07 10:58:51;;;;;;;2.20;1.30;;;;;;;21.09;59.48;99577.32;107079;1279;22622;-60
2022/07/07 11:01:18;;;;;;;6.70;5.00;;;;;;;21.12;59.28;99580.62;107056;1277;137771;-59
2022/07/07 11:03:45;;;;;;;6.40;3.70;;;;;;;21.13;58.73;99582.35;107231;1277;22449;-59
2022/07/07 11:06:15;;;;;;;4.20;2.70;;;;;;;21.16;58.79;99582.97;106968;1280;138422;-60
2022/07/07 11:08:42;;;;;;;1.60;1.30;;;;;;;21.20;58.82;99585.40;107135;1277;22464;-61
2022/07/07 11:11:09;;;;;;;4.50;1.60;;;;;;;21.21;58.38;99582.73;107207;1277;22646;-60
2022/07/07 11:13:38;;;;;;;2.00;1.50;;;;;;;21.22;58.86;99582.76;107069;1277;138018;-60
2022/07/07 11:16:10;;;;;;;3.40;1.20;;;;;;;21.25;58.82;99583.99;107110;1277;23031;-61
2022/07/07 11:18:37;;;;;;;2.60;2.00;;;;;;;21.27;58.98;99588.02;107025;1277;139368;-59
2022/07/07 11:21:04;;;;;;;3.50;1.50;;;;;;;21.29;59.03;99593.88;107173;1276;22461;-60
2022/07/07 11:23:50;;;;;;;2.40;1.30;;;;;;;21.31;58.13;99597.27;107150;1277;23289;-60
2022/07/07 11:26:24;;;;;;;1.70;1.30;;;;;;;21.30;57.94;99590.83;107034;1278;23675;-59
2022/07/07 11:28:52;;;;;;;2.10;1.30;;;;;;;21.32;57.95;99590.59;107122;1277;23441;-60
2022/07/07 11:31:19;;;;;;;4.50;1.50;;;;;;;21.37;57.71;99593.98;106958;1278;139495;-60
2022/07/07 11:33:55;;;;;;;2.60;1.60;;;;;;;21.42;57.54;99592.47;107184;1277;22434;-60